Time;durP1;ratioP1;P1;durP2;ratioP2;P2;SDS_P1;SDS_P2;PMS_P1;PMS_P2;Temp;Humidity;BMP_temperature;BMP_pressure;BME280_temperature;BME280_humidity;BME280_pressure;Samples;Min_cycle;Max_cycle;Signal;HPM_P1;HPM_P2
2022/03/18 00:00:41;;;;;;;19.90;14.20;;;12.40;99.90;;;;;;5044966;28;20053;-60
2022/03/18 00:03:08;;;;;;;22.40;14.02;;;12.40;99.90;;;;;;4997259;28;20088;-60
2022/03/18 00:05:36;;;;;;;18.73;13.20;;;12.40;99.90;;;;;;5016578;28;20041;-61
2022/03/18 00:08:05;;;;;;;18.10;13.13;;;12.40;99.90;;;;;;5033706;28;20056;-60
2022/03/18 00:10:33;;;;;;;19.25;12.80;;;12.40;99.90;;;;;;5008522;28;20056;-60
2022/03/18 00:13:00;;;;;;;17.98;13.27;;;12.40;99.90;;;;;;5007925;28;20034;-61
2022/03/18 00:15:29;;;;;;;18.10;12.60;;;12.40;99.90;;;;;;4999923;28;20045;-60
2022/03/18 00:17:57;;;;;;;16.58;12.88;;;12.40;99.90;;;;;;4992418;28;20050;-60
2022/03/18 00:20:25;;;;;;;17.08;11.68;;;12.30;99.90;;;;;;5001043;28;20045;-59
2022/03/18 00:22:53;;;;;;;19.63;14.30;;;12.40;99.90;;;;;;5016257;28;20092;-60
2022/03/18 00:25:21;;;;;;;25.90;17.05;;;12.30;99.90;;;;;;5015846;28;20081;-60
2022/03/18 00:27:48;;;;;;;23.33;16.45;;;12.30;99.90;;;;;;4997424;28;20037;-60
2022/03/18 00:30:17;;;;;;;27.67;16.98;;;12.30;99.90;;;;;;4999674;28;20456;-61
2022/03/18 00:32:46;;;;;;;24.65;16.15;;;12.20;99.90;;;;;;5024721;28;20067;-60
2022/03/18 00:35:34;;;;;;;24.38;15.93;;;12.30;99.90;;;;;;5016184;28;20088;-59
2022/03/18 00:38:02;;;;;;;20.70;14.55;;;12.30;99.90;;;;;;4991292;28;20041;-60
2022/03/18 00:40:30;;;;;;;19.52;14.07;;;12.20;99.90;;;;;;5031836;28;20045;-60
2022/03/18 00:42:57;;;;;;;24.75;15.60;;;12.20;99.90;;;;;;4987968;28;20140;-60
2022/03/18 00:45:25;;;;;;;21.20;14.73;;;12.20;99.90;;;;;;5020055;28;20045;-60
2022/03/18 00:53:27;;;;;;;19.38;13.98;;;12.20;99.90;;;;;;5040272;28;20067;-60
2022/03/18 00:55:55;;;;;;;19.50;12.88;;;12.10;99.90;;;;;;4996892;28;20073;-59
2022/03/18 00:58:22;;;;;;;19.52;13.13;;;12.10;99.90;;;;;;4973170;28;20069;-59
2022/03/18 01:00:50;;;;;;;16.13;12.13;;;12.10;99.90;;;;;;5015854;28;20050;-59
2022/03/18 01:03:19;;;;;;;17.67;12.75;;;12.10;99.90;;;;;;5003500;28;20046;-60
2022/03/18 01:05:46;;;;;;;17.73;12.25;;;12.10;99.90;;;;;;5009417;28;20403;-59
2022/03/18 01:08:14;;;;;;;17.33;12.25;;;12.10;99.90;;;;;;5010393;28;20045;-59
2022/03/18 01:10:42;;;;;;;16.35;12.25;;;12.10;99.90;;;;;;5014406;28;20045;-60
2022/03/18 01:13:09;;;;;;;17.65;11.20;;;12.10;99.90;;;;;;5014468;28;20105;-59
2022/03/18 01:15:37;;;;;;;13.13;10.60;;;12.10;99.90;;;;;;5010031;28;20049;-60
2022/03/18 01:18:04;;;;;;;15.55;10.23;;;12.10;99.90;;;;;;4989529;28;20140;-60
2022/03/18 01:20:32;;;;;;;13.90;10.45;;;12.20;99.90;;;;;;5025589;28;20042;-59
2022/03/18 01:23:00;;;;;;;14.32;10.18;;;12.20;99.90;;;;;;5007307;28;20088;-62
2022/03/18 01:25:28;;;;;;;15.38;11.20;;;12.20;99.90;;;;;;5020117;28;20068;-59
2022/03/18 01:27:55;;;;;;;15.43;9.80;;;12.20;99.90;;;;;;5014965;28;20041;-59
2022/03/18 01:30:24;;;;;;;16.48;10.50;;;12.20;99.90;;;;;;4997983;28;20052;-59
2022/03/18 01:32:51;;;;;;;15.07;10.15;;;12.30;99.90;;;;;;5012629;28;20037;-60
2022/03/18 01:35:19;;;;;;;14.70;10.68;;;12.30;99.90;;;;;;5014933;28;20046;-60
2022/03/18 01:37:46;;;;;;;16.02;10.10;;;12.30;99.90;;;;;;5006984;28;20075;-60
2022/03/18 01:40:14;;;;;;;14.60;9.57;;;12.30;99.90;;;;;;4997699;28;20527;-60
2022/03/18 01:42:42;;;;;;;12.30;9.15;;;12.20;99.90;;;;;;5004233;28;20136;-60
2022/03/18 01:45:09;;;;;;;17.92;9.40;;;12.20;99.90;;;;;;4992116;28;20515;-60
2022/03/18 01:47:42;;;;;;;13.43;9.13;;;12.20;99.90;;;;;;5020119;28;20049;-60
2022/03/18 01:50:11;;;;;;;15.35;10.50;;;12.20;99.90;;;;;;5019267;28;20048;-59
2022/03/18 01:52:39;;;;;;;12.60;9.18;;;12.20;99.90;;;;;;4997407;28;20057;-60
2022/03/18 01:55:07;;;;;;;14.00;9.55;;;12.20;99.90;;;;;;5014307;28;20041;-61
2022/03/18 01:57:35;;;;;;;15.27;9.32;;;12.10;99.90;;;;;;5010471;28;20049;-60
2022/03/18 02:00:05;;;;;;;15.77;10.32;;;12.10;99.90;;;;;;5038061;28;20064;-60
2022/03/18 02:02:37;;;;;;;16.25;9.70;;;12.10;99.90;;;;;;5024420;28;20041;-59
2022/03/18 02:05:09;;;;;;;15.90;9.43;;;12.10;99.90;;;;;;5018145;28;20498;-59
2022/03/18 02:07:36;;;;;;;12.95;9.63;;;12.20;99.90;;;;;;5033596;28;20127;-60
2022/03/18 02:10:06;;;;;;;14.25;9.60;;;12.20;99.90;;;;;;5008023;28;20048;-61
2022/03/18 02:12:35;;;;;;;15.20;10.05;;;12.20;99.90;;;;;;5000314;28;20054;-60
2022/03/18 02:15:04;;;;;;;15.13;10.85;;;12.20;99.90;;;;;;5018927;28;20045;-61
2022/03/18 02:17:31;;;;;;;17.20;11.32;;;12.20;99.90;;;;;;5013755;28;20187;-60
2022/03/18 02:19:58;;;;;;;17.02;10.70;;;12.20;99.90;;;;;;5013882;28;20050;-60
2022/03/18 02:22:28;;;;;;;14.93;9.98;;;12.20;99.90;;;;;;5014477;28;20420;-61
2022/03/18 02:24:55;;;;;;;15.65;10.07;;;12.20;99.90;;;;;;5031345;28;20132;-60
2022/03/18 02:27:23;;;;;;;19.73;12.15;;;12.10;99.90;;;;;;5015956;28;20057;-60
2022/03/18 02:29:51;;;;;;;18.02;13.13;;;12.10;99.90;;;;;;5032150;28;20487;-59
2022/03/18 02:32:19;;;;;;;15.68;11.73;;;12.10;99.90;;;;;;5033176;28;20111;-59
2022/03/18 02:34:47;;;;;;;17.55;10.68;;;12.10;99.90;;;;;;4999237;28;20041;-60
2022/03/18 02:37:14;;;;;;;17.77;10.93;;;12.00;99.90;;;;;;5033038;28;20052;-60
2022/03/18 02:39:42;;;;;;;17.20;11.98;;;12.00;99.90;;;;;;5016013;28;20447;-60
2022/03/18 02:42:09;;;;;;;21.55;9.93;;;12.00;99.90;;;;;;5032908;28;20041;-60
2022/03/18 02:44:37;;;;;;;17.38;10.57;;;12.00;99.90;;;;;;5007044;28;20049;-60
2022/03/18 02:47:05;;;;;;;16.25;11.32;;;11.90;99.90;;;;;;5015255;28;20480;-60
2022/03/18 02:49:33;;;;;;;17.55;11.32;;;11.90;99.90;;;;;;5015553;28;20050;-60
2022/03/18 02:52:00;;;;;;;15.23;10.80;;;11.90;99.90;;;;;;5015329;28;20053;-59
2022/03/18 02:54:28;;;;;;;19.52;12.15;;;11.90;99.90;;;;;;5033052;28;20049;-59
2022/03/18 02:56:55;;;;;;;20.17;11.80;;;11.90;99.90;;;;;;5015675;28;20123;-59
2022/03/18 02:59:23;;;;;;;19.70;11.85;;;11.80;99.90;;;;;;5015555;28;20052;-60
2022/03/18 03:01:51;;;;;;;17.67;11.70;;;11.80;99.90;;;;;;5032916;28;20449;-60
2022/03/18 03:04:18;;;;;;;17.48;11.55;;;11.80;99.90;;;;;;5015200;28;20582;-59
2022/03/18 03:09:34;;;;;;;19.90;10.82;;;11.70;99.90;;;;;;5001727;28;20056;-60
2022/03/18 03:12:02;;;;;;;17.38;10.68;;;11.70;99.90;;;;;;5018713;28;20045;-60
2022/03/18 03:14:30;;;;;;;18.77;12.00;;;11.60;99.90;;;;;;5002093;28;20049;-59
2022/03/18 03:16:58;;;;;;;17.02;11.77;;;11.60;99.90;;;;;;5036197;28;20499;-59
2022/03/18 03:19:25;;;;;;;15.70;11.02;;;11.60;99.90;;;;;;5036295;28;20045;-60
2022/03/18 03:21:53;;;;;;;21.92;12.75;;;11.60;99.90;;;;;;5002656;28;20049;-59
2022/03/18 03:24:20;;;;;;;17.30;12.27;;;11.60;99.90;;;;;;5018604;28;20519;-59
2022/03/18 03:26:48;;;;;;;19.35;10.95;;;11.50;99.90;;;;;;5036063;28;20136;-60
2022/03/18 03:29:15;;;;;;;15.88;10.68;;;11.50;99.90;;;;;;5002605;28;20061;-59
2022/03/18 03:31:43;;;;;;;13.95;11.15;;;11.50;99.90;;;;;;5018464;28;20045;-60
2022/03/18 03:34:10;;;;;;;19.95;11.98;;;11.40;99.90;;;;;;5018593;28;20128;-60
2022/03/18 03:36:38;;;;;;;18.98;11.43;;;11.30;99.90;;;;;;5018394;28;20099;-60
2022/03/18 03:39:05;;;;;;;16.13;10.90;;;11.30;99.90;;;;;;5002182;28;20480;-60
2022/03/18 03:41:33;;;;;;;19.85;10.38;;;11.20;99.90;;;;;;5001837;28;20050;-59
2022/03/18 03:44:01;;;;;;;18.35;11.93;;;11.20;99.90;;;;;;5018124;28;20038;-59
2022/03/18 03:46:28;;;;;;;18.10;12.88;;;11.20;99.90;;;;;;5001967;28;20042;-59
2022/03/18 03:48:56;;;;;;;20.75;12.95;;;11.10;99.90;;;;;;5017865;28;20404;-59
2022/03/18 03:51:23;;;;;;;22.00;12.93;;;11.10;99.90;;;;;;5001704;28;20045;-60
2022/03/18 03:53:51;;;;;;;21.27;12.60;;;11.10;99.90;;;;;;4985971;28;20085;-59
2022/03/18 03:56:18;;;;;;;21.30;12.77;;;11.10;99.90;;;;;;5017966;28;20041;-59
2022/03/18 03:58:46;;;;;;;17.02;12.30;;;11.10;99.90;;;;;;4985638;28;20499;-60
2022/03/18 04:01:14;;;;;;;16.08;10.68;;;11.10;99.90;;;;;;5017945;28;20127;-59
2022/03/18 04:03:41;;;;;;;18.48;13.32;;;11.10;99.90;;;;;;5001613;28;20061;-59
2022/03/18 04:06:09;;;;;;;18.27;11.98;;;11.10;99.90;;;;;;5002061;28;20061;-59
2022/03/18 04:08:37;;;;;;;22.08;12.73;;;11.10;99.90;;;;;;5001722;28;20060;-60
2022/03/18 04:11:06;;;;;;;16.92;12.27;;;11.10;99.90;;;;;;5018183;28;20051;-59
2022/03/18 04:13:33;;;;;;;18.33;12.70;;;11.10;99.90;;;;;;5001279;28;20444;-59
2022/03/18 04:16:01;;;;;;;18.65;13.25;;;11.10;99.90;;;;;;4985234;28;20394;-59
2022/03/18 04:18:29;;;;;;;19.05;13.80;;;11.10;99.90;;;;;;5001272;28;20056;-59
2022/03/18 04:20:56;;;;;;;20.30;13.18;;;11.10;99.90;;;;;;5017445;28;20174;-59
2022/03/18 04:23:24;;;;;;;17.80;12.77;;;11.10;99.90;;;;;;5001297;28;20092;-59
2022/03/18 04:25:52;;;;;;;20.85;13.57;;;11.10;99.90;;;;;;5017404;28;20046;-59
2022/03/18 04:28:19;;;;;;;19.05;13.10;;;11.10;99.90;;;;;;5017461;28;20049;-59
2022/03/18 04:30:47;;;;;;;20.33;13.82;;;11.10;99.90;;;;;;4984978;28;20462;-59
2022/03/18 04:33:15;;;;;;;22.10;13.00;;;11.10;99.90;;;;;;5034849;28;20124;-59
2022/03/18 04:35:42;;;;;;;19.80;14.05;;;11.10;99.90;;;;;;5022373;28;20077;-59
2022/03/18 04:38:10;;;;;;;19.40;12.40;;;11.10;99.90;;;;;;5029186;28;20444;-59
2022/03/18 04:40:38;;;;;;;21.38;13.95;;;11.20;99.90;;;;;;5033776;28;20045;-59
2022/03/18 04:43:05;;;;;;;19.10;13.68;;;11.20;99.90;;;;;;5033887;28;20217;-59
2022/03/18 04:45:33;;;;;;;20.92;14.10;;;11.20;99.90;;;;;;5033414;28;20062;-59
2022/03/18 04:48:01;;;;;;;23.52;14.00;;;11.20;99.90;;;;;;5000759;28;20049;-59
2022/03/18 04:50:29;;;;;;;26.88;14.80;;;11.20;99.90;;;;;;5016945;28;20071;-59
2022/03/18 04:52:56;;;;;;;19.65;13.18;;;11.20;99.90;;;;;;5017104;28;20045;-59
2022/03/18 04:55:24;;;;;;;25.45;17.45;;;11.20;99.90;;;;;;5033422;28;20076;-59
2022/03/18 04:57:52;;;;;;;26.90;15.65;;;11.20;99.90;;;;;;5000646;28;20057;-59
2022/03/18 05:00:24;;;;;;;24.90;16.02;;;11.20;99.90;;;;;;5034470;28;20042;-59
2022/03/18 05:02:52;;;;;;;24.45;16.02;;;11.20;99.90;;;;;;5016919;28;20059;-59
2022/03/18 05:05:20;;;;;;;21.38;15.65;;;11.20;99.90;;;;;;5016929;28;20053;-59
2022/03/18 05:07:51;;;;;;;26.02;14.68;;;11.20;99.90;;;;;;5017492;28;20049;-59
2022/03/18 05:10:19;;;;;;;20.95;15.23;;;11.30;99.90;;;;;;5000468;28;20502;-59
2022/03/18 05:12:46;;;;;;;24.10;15.25;;;11.30;99.90;;;;;;5016719;28;20076;-59
2022/03/18 05:15:16;;;;;;;30.27;15.55;;;11.30;99.90;;;;;;5016846;28;20373;-59
2022/03/18 05:17:50;;;;;;;21.17;14.02;;;11.40;99.90;;;;;;5032736;28;20053;-59
2022/03/18 05:20:18;;;;;;;22.27;14.10;;;11.40;99.90;;;;;;4992679;28;20036;-59
2022/03/18 05:22:46;;;;;;;25.48;13.50;;;11.40;99.90;;;;;;5014543;28;20045;-59
2022/03/18 05:25:14;;;;;;;26.17;13.85;;;11.40;99.90;;;;;;4998934;28;20503;-59
2022/03/18 05:27:44;;;;;;;21.08;15.30;;;11.50;99.90;;;;;;5013537;28;20119;-59
2022/03/18 05:30:14;;;;;;;19.25;12.65;;;11.50;99.90;;;;;;5019717;28;20041;-59
2022/03/18 05:32:42;;;;;;;19.90;14.30;;;11.50;99.90;;;;;;4983547;28;20076;-59
2022/03/18 05:35:12;;;;;;;22.38;13.05;;;11.50;99.90;;;;;;5015231;28;20037;-59
2022/03/18 05:37:40;;;;;;;19.33;14.68;;;11.60;99.90;;;;;;4997501;28;20053;-59
2022/03/18 05:40:10;;;;;;;18.92;13.70;;;11.70;99.90;;;;;;5028127;28;20045;-59
2022/03/18 05:42:39;;;;;;;19.00;12.27;;;11.70;99.90;;;;;;5022110;28;20053;-59
2022/03/18 05:45:10;;;;;;;25.55;14.88;;;11.80;99.90;;;;;;5013014;28;20049;-59
2022/03/18 05:47:38;;;;;;;22.98;15.98;;;11.90;99.90;;;;;;5011007;28;20038;-59
2022/03/18 05:50:07;;;;;;;20.02;13.32;;;12.00;99.90;;;;;;5015805;28;20080;-59
2022/03/18 05:52:36;;;;;;;20.65;14.73;;;12.20;99.90;;;;;;4986719;28;20076;-59
2022/03/18 05:55:04;;;;;;;28.88;15.38;;;12.30;99.90;;;;;;4999226;28;20041;-59
2022/03/18 05:57:32;;;;;;;24.33;13.40;;;12.40;99.90;;;;;;5024769;28;20084;-59
2022/03/18 06:00:01;;;;;;;20.08;14.88;;;12.50;99.90;;;;;;5032814;28;20064;-59
2022/03/18 06:02:39;;;;;;;23.38;15.32;;;12.70;99.90;;;;;;5017685;28;20037;-59
2022/03/18 06:05:08;;;;;;;24.70;14.60;;;12.80;99.90;;;;;;5014279;28;20055;-60
2022/03/18 06:07:38;;;;;;;27.55;15.05;;;12.90;99.90;;;;;;4997456;28;20468;-60
2022/03/18 06:12:52;;;;;;;26.83;17.17;;;13.10;99.90;;;;;;5013763;28;20123;-59
2022/03/18 06:15:19;;;;;;;51.97;31.85;;;13.20;99.90;;;;;;4997671;28;20033;-60
2022/03/18 06:17:47;;;;;;;50.60;28.95;;;13.30;99.90;;;;;;4998139;28;20049;-59
2022/03/18 06:20:15;;;;;;;39.88;21.70;;;13.40;99.90;;;;;;5015232;28;20041;-61
2022/03/18 06:22:42;;;;;;;29.55;19.85;;;13.60;99.90;;;;;;5016043;28;20041;-60
2022/03/18 06:25:10;;;;;;;26.67;16.80;;;13.80;99.90;;;;;;5032949;28;20041;-61
2022/03/18 06:27:38;;;;;;;27.88;16.08;;;14.10;99.90;;;;;;4998882;28;20041;-60
2022/03/18 06:30:06;;;;;;;30.15;17.90;;;14.30;99.90;;;;;;5033142;28;20042;-61
2022/03/18 06:32:33;;;;;;;37.30;20.27;;;14.50;99.90;;;;;;5032578;28;20470;-60
2022/03/18 06:35:01;;;;;;;29.45;20.10;;;14.70;99.90;;;;;;4983401;28;20112;-60
2022/03/18 06:37:28;;;;;;;21.65;15.85;;;14.90;99.90;;;;;;4999291;28;20045;-60
2022/03/18 06:39:56;;;;;;;22.30;14.00;;;15.10;99.90;;;;;;5015983;28;20069;-59
2022/03/18 06:42:24;;;;;;;22.35;13.65;;;15.30;99.60;;;;;;5033183;28;20103;-60
2022/03/18 06:44:52;;;;;;;21.13;14.10;;;15.40;99.40;;;;;;5036364;28;20092;-60
2022/03/18 06:47:19;;;;;;;26.02;13.38;;;15.50;99.00;;;;;;5003236;28;20498;-59
2022/03/18 06:49:47;;;;;;;20.25;13.23;;;15.70;98.90;;;;;;5019270;28;20487;-60
2022/03/18 06:52:15;;;;;;;19.02;11.98;;;15.90;98.80;;;;;;5019363;28;20476;-59
2022/03/18 06:54:42;;;;;;;21.60;12.65;;;16.00;98.70;;;;;;5036811;28;20076;-59
2022/03/18 06:57:12;;;;;;;19.52;11.35;;;16.00;98.50;;;;;;4986699;28;20049;-59
2022/03/18 06:59:40;;;;;;;17.73;12.00;;;16.20;98.70;;;;;;5018976;28;20104;-60
2022/03/18 07:02:08;;;;;;;20.05;12.40;;;16.40;98.80;;;;;;5036922;28;20040;-60
2022/03/18 07:04:36;;;;;;;19.20;12.18;;;16.50;98.90;;;;;;4986821;28;20388;-60
2022/03/18 07:07:04;;;;;;;15.95;9.40;;;16.70;98.70;;;;;;5019118;28;20072;-60
2022/03/18 07:09:33;;;;;;;18.02;11.18;;;16.80;98.30;;;;;;5002632;28;20060;-60
2022/03/18 07:12:00;;;;;;;17.50;11.27;;;16.90;98.60;;;;;;5036305;28;20068;-59
2022/03/18 07:14:28;;;;;;;18.58;12.07;;;16.90;98.30;;;;;;5036492;28;20129;-60
2022/03/18 07:19:43;;;;;;;60.08;35.63;;;16.90;98.40;;;;;;5036310;28;20526;-59
2022/03/18 07:22:11;;;;;;;47.33;26.85;;;16.70;98.50;;;;;;5018518;28;20049;-60
2022/03/18 07:24:39;;;;;;;30.13;17.42;;;16.70;98.80;;;;;;5002454;28;20128;-60
2022/03/18 07:27:06;;;;;;;15.45;11.27;;;16.60;98.90;;;;;;5018911;28;20068;-60
2022/03/18 07:29:34;;;;;;;13.00;9.45;;;16.40;99.20;;;;;;5018878;28;20229;-60
2022/03/18 07:32:03;;;;;;;20.75;13.18;;;16.40;99.30;;;;;;5036173;28;20562;-60
2022/03/18 07:34:31;;;;;;;19.90;12.68;;;16.30;99.80;;;;;;5001909;28;20076;-60
2022/03/18 07:36:58;;;;;;;18.40;11.30;;;16.30;99.70;;;;;;5036042;28;20430;-60
2022/03/18 07:39:26;;;;;;;15.73;9.43;;;16.40;99.70;;;;;;5036212;28;20042;-60
2022/03/18 07:41:53;;;;;;;31.85;21.27;;;16.40;99.50;;;;;;5018587;28;20045;-60
2022/03/18 07:44:24;;;;;;;15.32;10.75;;;16.40;99.70;;;;;;4986004;28;20131;-61
2022/03/18 07:46:51;;;;;;;20.55;12.05;;;16.50;99.70;;;;;;5018980;28;20042;-59
2022/03/18 07:49:19;;;;;;;21.45;13.20;;;16.50;99.70;;;;;;4985669;28;20053;-60
2022/03/18 07:51:46;;;;;;;18.77;11.40;;;16.40;99.60;;;;;;5018287;28;20054;-60
2022/03/18 07:54:14;;;;;;;15.65;8.27;;;16.40;99.60;;;;;;5001721;28;20044;-59
2022/03/18 07:56:41;;;;;;;18.42;10.48;;;16.60;99.90;;;;;;5036006;28;20048;-59
2022/03/18 07:59:09;;;;;;;12.45;8.50;;;16.60;99.70;;;;;;5018326;28;20095;-59
2022/03/18 08:01:39;;;;;;;15.20;8.77;;;16.30;99.90;;;;;;5035606;28;20069;-60
2022/03/18 08:04:09;;;;;;;23.02;12.75;;;16.40;99.90;;;;;;5001638;28;20089;-59
2022/03/18 08:06:36;;;;;;;14.70;8.88;;;16.50;99.90;;;;;;5018126;28;20137;-59
2022/03/18 08:09:04;;;;;;;24.52;12.65;;;16.70;99.90;;;;;;5035545;28;20049;-59
2022/03/18 08:11:32;;;;;;;11.88;7.70;;;16.70;99.80;;;;;;5001692;28;20040;-60
2022/03/18 08:14:00;;;;;;;12.57;8.32;;;16.80;99.60;;;;;;5001524;28;20132;-59
2022/03/18 08:16:28;;;;;;;12.18;8.32;;;16.50;99.60;;;;;;4985034;28;20073;-59
2022/03/18 08:18:57;;;;;;;26.23;9.85;;;16.40;99.90;;;;;;5017905;28;20143;-59
2022/03/18 08:21:30;;;;;;;13.55;8.27;;;16.10;99.90;;;;;;5018237;28;20049;-60
2022/03/18 08:23:58;;;;;;;14.95;8.85;;;15.90;99.90;;;;;;5035398;28;20046;-60
2022/03/18 08:26:26;;;;;;;10.20;6.40;;;16.10;99.90;;;;;;5001114;28;20044;-60
2022/03/18 08:28:54;;;;;;;9.45;4.93;;;16.20;99.90;;;;;;5017489;28;20038;-60
2022/03/18 08:31:22;;;;;;;8.85;5.78;;;16.00;99.90;;;;;;5017512;28;20045;-60
2022/03/18 08:33:49;;;;;;;9.32;6.20;;;16.10;99.90;;;;;;5017452;28;20053;-60
2022/03/18 08:36:19;;;;;;;12.43;6.30;;;15.90;99.90;;;;;;5017789;28;20486;-59
2022/03/18 08:38:46;;;;;;;8.65;6.15;;;15.90;99.90;;;;;;5001163;28;20045;-59
2022/03/18 08:41:14;;;;;;;7.70;5.72;;;15.90;99.90;;;;;;5017504;28;20050;-59
2022/03/18 08:43:45;;;;;;;8.48;6.00;;;15.90;99.90;;;;;;5017338;28;20048;-59
2022/03/18 08:46:13;;;;;;;9.15;5.95;;;15.80;99.90;;;;;;5017488;28;20041;-59
2022/03/18 08:48:42;;;;;;;11.70;6.65;;;15.70;99.90;;;;;;5034859;28;20041;-60
2022/03/18 08:51:10;;;;;;;12.57;7.53;;;15.70;99.90;;;;;;5017273;28;20055;-59
2022/03/18 08:53:38;;;;;;;12.43;6.47;;;15.80;99.90;;;;;;5034614;28;20047;-59
2022/03/18 08:56:05;;;;;;;10.45;7.30;;;16.00;99.90;;;;;;5000902;28;20056;-60
2022/03/18 08:58:33;;;;;;;11.98;6.78;;;16.00;99.90;;;;;;5034728;28;20041;-60
2022/03/18 09:01:00;;;;;;;9.48;6.03;;;16.00;99.90;;;;;;5016889;28;20121;-60
2022/03/18 09:03:28;;;;;;;13.52;7.35;;;15.70;99.90;;;;;;5034499;28;20045;-60
2022/03/18 09:05:56;;;;;;;14.38;8.80;;;15.70;99.90;;;;;;5000211;28;20068;-60
2022/03/18 09:08:23;;;;;;;11.32;6.80;;;15.50;99.90;;;;;;5034411;28;20044;-60
2022/03/18 09:10:50;;;;;;;15.02;7.05;;;15.30;99.90;;;;;;5016544;28;20506;-60
2022/03/18 09:13:18;;;;;;;11.73;7.18;;;15.30;99.90;;;;;;5034164;28;20046;-60
2022/03/18 09:15:46;;;;;;;10.48;6.65;;;15.20;99.90;;;;;;5016521;28;20192;-59
2022/03/18 09:18:14;;;;;;;18.55;8.68;;;15.10;99.90;;;;;;5000202;28;20511;-59
2022/03/18 09:20:41;;;;;;;11.70;6.53;;;14.90;99.90;;;;;;5016375;28;20053;-59
2022/03/18 09:23:09;;;;;;;10.20;6.88;;;14.80;99.90;;;;;;5016594;28;20112;-59
2022/03/18 09:25:37;;;;;;;7.88;4.82;;;14.70;99.90;;;;;;4984107;28;20041;-59
2022/03/18 09:28:05;;;;;;;12.05;6.60;;;14.60;99.90;;;;;;5016456;28;20064;-59
2022/03/18 09:30:48;;;;;;;14.00;7.07;;;14.50;99.90;;;;;;5002584;28;20053;-60
2022/03/18 09:33:16;;;;;;;20.63;13.43;;;14.40;99.90;;;;;;5016613;28;20045;-59
2022/03/18 09:35:44;;;;;;;14.70;6.93;;;14.40;99.90;;;;;;5016409;28;20103;-59
2022/03/18 09:38:11;;;;;;;11.63;5.80;;;14.40;99.90;;;;;;5016658;28;20037;-59
2022/03/18 09:40:40;;;;;;;11.88;5.30;;;14.50;99.90;;;;;;5033993;28;20487;-59
2022/03/18 09:43:36;;;;;;;10.55;5.05;;;14.40;99.90;;;;;;5003100;28;20051;-60
2022/03/18 09:46:06;;;;;;;9.87;5.17;;;14.30;99.90;;;;;;5033844;28;20042;-60
2022/03/18 09:48:55;;;;;;;8.88;4.80;;;14.20;99.90;;;;;;4999918;28;20375;-59
2022/03/18 09:51:23;;;;;;;12.90;5.47;;;14.00;99.90;;;;;;5016070;28;20069;-60
2022/03/18 09:54:25;;;;;;;12.50;6.35;;;14.00;99.90;;;;;;5033489;28;20499;-60
2022/03/18 09:56:54;;;;;;;11.30;5.75;;;13.80;99.90;;;;;;5016263;28;20491;-60
2022/03/18 09:59:24;;;;;;;10.18;6.03;;;13.70;99.90;;;;;;5016018;28;20045;-61
2022/03/18 10:02:26;;;;;;;9.82;6.88;;;13.60;99.90;;;;;;5016746;28;20136;-59
2022/03/18 10:04:56;;;;;;;14.15;8.10;;;13.50;99.90;;;;;;5016101;28;20053;-60
2022/03/18 10:07:25;;;;;;;10.95;7.53;;;13.40;99.90;;;;;;5000049;28;20428;-60
2022/03/18 10:10:10;;;;;;;11.60;6.78;;;13.20;99.90;;;;;;4983794;28;20045;-60
2022/03/18 10:12:39;;;;;;;10.32;6.07;;;13.20;99.90;;;;;;5016041;28;20037;-59
2022/03/18 10:15:13;;;;;;;11.23;5.95;;;13.30;99.90;;;;;;5033346;28;20391;-60
2022/03/18 10:17:41;;;;;;;9.43;5.22;;;13.20;99.90;;;;;;5034914;28;20080;-60
2022/03/18 10:20:32;;;;;;;11.20;6.05;;;13.10;99.90;;;;;;5020191;28;20038;-60
2022/03/18 10:23:14;;;;;;;15.25;7.22;;;13.10;99.90;;;;;;4992631;28;20056;-59
2022/03/18 10:25:51;;;;;;;12.52;8.25;;;13.10;99.90;;;;;;4992434;28;20038;-59
2022/03/18 10:28:37;;;;;;;;;;;13.20;99.90;;;;;;5008709;28;20128;-59
2022/03/18 10:31:23;;;;;;;19.10;12.45;;;13.20;99.90;;;;;;5002431;28;19967;-60
2022/03/18 10:39:48;;;;;;;15.27;8.40;;;13.20;99.90;;;;;;5033018;28;20038;-60
2022/03/18 10:42:18;;;;;;;16.02;8.38;;;13.20;99.90;;;;;;4996029;28;20065;-60
2022/03/18 10:44:46;;;;;;;11.40;6.05;;;13.10;99.90;;;;;;5001927;28;20041;-60
2022/03/18 10:47:34;;;;;;;12.77;5.80;;;13.10;99.90;;;;;;5019494;28;20507;-59
2022/03/18 10:50:16;;;;;;;18.23;7.05;;;13.10;99.90;;;;;;5007510;28;20495;-60
2022/03/18 10:52:50;;;;;;;11.60;8.63;;;13.20;99.90;;;;;;5024544;28;20045;-60
2022/03/18 10:55:26;;;;;;;9.95;5.32;;;13.10;99.90;;;;;;5006223;28;20046;-60
2022/03/18 10:57:55;;;;;;;10.35;4.80;;;13.10;99.90;;;;;;5027794;28;20070;-60
2022/03/18 11:00:25;;;;;;;9.30;6.10;;;13.10;99.90;;;;;;5027887;28;20041;-60
2022/03/18 11:02:58;;;;;;;9.63;5.53;;;13.10;99.90;;;;;;5016502;28;20092;-60
2022/03/18 11:05:33;;;;;;;10.40;6.63;;;13.20;99.90;;;;;;5018795;28;20076;-60
2022/03/18 11:08:02;;;;;;;11.38;7.10;;;13.20;99.90;;;;;;5003034;28;20069;-60
2022/03/18 11:13:19;;;;;;;14.95;7.88;;;13.30;99.90;;;;;;5018323;28;20511;-60
2022/03/18 11:15:49;;;;;;;10.65;6.53;;;13.30;99.90;;;;;;5036396;28;20044;-60
2022/03/18 11:18:16;;;;;;;17.45;8.88;;;13.40;99.90;;;;;;5036502;28;20045;-60
2022/03/18 11:20:44;;;;;;;16.00;6.88;;;13.30;99.90;;;;;;5018884;28;20095;-60
2022/03/18 11:23:25;;;;;;;15.90;8.10;;;13.30;99.90;;;;;;5018865;28;20076;-60
2022/03/18 11:25:57;;;;;;;11.55;6.82;;;13.30;99.90;;;;;;5018514;28;20404;-60
2022/03/18 11:28:25;;;;;;;16.65;10.55;;;13.40;99.90;;;;;;5001914;28;20052;-61
2022/03/18 11:31:10;;;;;;;10.38;6.90;;;13.40;99.90;;;;;;4985977;28;20052;-60
2022/03/18 11:33:38;;;;;;;11.88;6.15;;;13.40;99.90;;;;;;5018711;28;20072;-60
2022/03/18 11:36:14;;;;;;;11.00;5.65;;;13.40;99.90;;;;;;5036162;28;20554;-60
2022/03/18 11:39:02;;;;;;;16.00;9.55;;;13.40;99.90;;;;;;5018489;28;20037;-60
2022/03/18 11:41:51;;;;;;;11.32;5.50;;;13.30;99.90;;;;;;5002366;28;20041;-60
2022/03/18 11:44:41;;;;;;;12.95;6.15;;;13.30;99.90;;;;;;5018331;28;20080;-60
2022/03/18 11:47:20;;;;;;;10.75;6.00;;;13.40;99.90;;;;;;5018592;28;20140;-60
2022/03/18 11:49:50;;;;;;;15.68;6.22;;;13.40;99.90;;;;;;5018548;28;20060;-60
2022/03/18 11:52:18;;;;;;;11.15;5.25;;;13.40;99.90;;;;;;5018279;28;20037;-60
2022/03/18 11:55:08;;;;;;;12.70;5.18;;;13.30;99.90;;;;;;5001689;28;20053;-60
2022/03/18 11:57:45;;;;;;;7.85;4.85;;;13.30;99.90;;;;;;5035595;28;20495;-61
2022/03/18 12:00:35;;;;;;;10.00;5.30;;;13.30;99.90;;;;;;5035814;28;20538;-60
2022/03/18 12:03:04;;;;;;;12.73;5.57;;;13.40;99.90;;;;;;5002091;28;20065;-61
2022/03/18 12:05:33;;;;;;;7.70;5.00;;;13.40;99.90;;;;;;5001940;28;20467;-62
2022/03/18 12:08:02;;;;;;;8.80;5.43;;;13.40;99.90;;;;;;5018000;28;20553;-62
2022/03/18 12:10:41;;;;;;;15.55;6.57;;;13.30;99.90;;;;;;5018262;28;20191;-62
2022/03/18 12:13:09;;;;;;;10.85;5.82;;;13.40;99.90;;;;;;5017894;28;20045;-61
2022/03/18 12:15:41;;;;;;;15.23;7.18;;;13.30;99.90;;;;;;5017403;28;20103;-61
2022/03/18 12:18:08;;;;;;;11.70;5.22;;;13.30;99.90;;;;;;5017442;28;20049;-61
2022/03/18 12:20:47;;;;;;;11.38;4.30;;;13.30;99.90;;;;;;5035132;28;20103;-61
2022/03/18 12:23:15;;;;;;;9.43;4.88;;;13.20;99.90;;;;;;5017689;28;20041;-61
2022/03/18 12:25:47;;;;;;;11.93;4.95;;;13.30;99.90;;;;;;5035302;28;20050;-61
2022/03/18 12:28:15;;;;;;;11.60;5.35;;;13.20;99.90;;;;;;5001203;28;20389;-61
2022/03/18 12:30:42;;;;;;;11.48;4.70;;;13.20;99.90;;;;;;5035171;28;20051;-61
2022/03/18 12:33:10;;;;;;;9.73;4.90;;;13.20;99.90;;;;;;5035141;28;20095;-61
2022/03/18 12:35:45;;;;;;;11.07;5.75;;;13.20;99.90;;;;;;5034922;28;20034;-61
2022/03/18 12:38:14;;;;;;;14.90;5.78;;;13.10;99.90;;;;;;5017458;28;20057;-61
2022/03/18 12:40:43;;;;;;;12.35;6.28;;;13.00;99.90;;;;;;5033902;28;20103;-61
2022/03/18 12:43:15;;;;;;;12.52;6.22;;;13.00;99.90;;;;;;5000285;28;20136;-61
2022/03/18 12:45:44;;;;;;;9.90;5.22;;;13.00;99.90;;;;;;5001159;28;20061;-61
2022/03/18 12:48:15;;;;;;;10.32;3.80;;;13.00;99.90;;;;;;5033660;28;20513;-61
2022/03/18 12:50:44;;;;;;;9.80;4.07;;;12.90;99.90;;;;;;5017163;28;20061;-61
2022/03/18 12:53:20;;;;;;;9.23;4.65;;;12.90;99.90;;;;;;5034670;28;20093;-61
2022/03/18 12:55:53;;;;;;;10.95;4.35;;;12.90;99.90;;;;;;5017026;28;20041;-60
2022/03/18 12:58:38;;;;;;;9.40;3.75;;;12.80;99.90;;;;;;5003387;28;20076;-61
2022/03/18 13:01:16;;;;;;;14.43;4.95;;;12.90;99.90;;;;;;5014945;28;20132;-61
2022/03/18 13:03:48;;;;;;;10.80;4.75;;;12.90;99.90;;;;;;4998799;28;20072;-63
2022/03/18 13:06:22;;;;;;;12.10;4.53;;;12.90;99.90;;;;;;5027210;28;20034;-66
2022/03/18 13:08:54;;;;;;;11.55;5.10;;;13.00;99.90;;;;;;5026259;28;20495;-67